Gran Canaria, Spain
Current Conditions -  °F | °C
As of 4:30 PM on Thursday 30 Oct 2014 (Local Time) from GCLP Reporting Station
Broken Clouds Broken Clouds  
Wind Chill: 77°   Ceiling: 4000
Heat Index: 79°   Visibility: 6mi
Dew Point: 64°   Wind: 14mph
Humidity: 65%   Direction: 40°NE
Pressure: 29.94"   Gusts: NA
Location:  28.14°N, 15.43°W
Report Text: GCLP 301630Z 04012KT 9999 FEW020 BKN040 25/18 Q1014 NOSIG
Loading
Personal Weather Stations






























Interactive Weather Map
Tropical Storm Tracking
New forecast layout! Learn more

10-Day Weather Forecast

Advertisements
Track Severe Weather on mobile